sensor_id;sensor_type;location;lat;lon;timestamp;pressure;altitude;pressure_sealevel;temperature;humidity
54453;BME280;40363;52.270;10.546;2024-02-15T00:02:07;100765.22;;;9.66;91.06
54453;BME280;40363;52.270;10.546;2024-02-15T00:04:34;100767.16;;;9.65;90.65
54453;BME280;40363;52.270;10.546;2024-02-15T00:07:01;100760.88;;;9.65;90.96
54453;BME280;40363;52.270;10.546;2024-02-15T00:09:30;100766.38;;;9.65;90.69
54453;BME280;40363;52.270;10.546;2024-02-15T00:11:57;100760.25;;;9.68;91.09
54453;BME280;40363;52.270;10.546;2024-02-15T00:14:25;100766.53;;;9.68;91.13
54453;BME280;40363;52.270;10.546;2024-02-15T00:16:51;100770.69;;;9.66;90.95
54453;BME280;40363;52.270;10.546;2024-02-15T00:19:18;100766.84;;;9.76;91.05
54453;BME280;40363;52.270;10.546;2024-02-15T00:21:45;100764.28;;;9.79;90.65
54453;BME280;40363;52.270;10.546;2024-02-15T00:24:12;100769.75;;;9.79;90.77
54453;BME280;40363;52.270;10.546;2024-02-15T00:26:41;100761.22;;;9.81;90.76
54453;BME280;40363;52.270;10.546;2024-02-15T00:29:08;100758.16;;;9.82;90.54
54453;BME280;40363;52.270;10.546;2024-02-15T00:31:35;100769.59;;;9.84;90.59
54453;BME280;40363;52.270;10.546;2024-02-15T00:34:03;100771.53;;;9.84;90.62
54453;BME280;40363;52.270;10.546;2024-02-15T00:36:30;100773.78;;;9.82;90.64
54453;BME280;40363;52.270;10.546;2024-02-15T00:38:57;100761.88;;;9.86;90.47
54453;BME280;40363;52.270;10.546;2024-02-15T00:41:24;100758.47;;;9.90;90.27
54453;BME280;40363;52.270;10.546;2024-02-15T00:43:52;100760.25;;;9.85;90.51
54453;BME280;40363;52.270;10.546;2024-02-15T00:46:19;100761.88;;;9.86;90.47
54453;BME280;40363;52.270;10.546;2024-02-15T00:48:46;100756.41;;;9.86;90.23
54453;BME280;40363;52.270;10.546;2024-02-15T00:51:12;100756.41;;;9.86;90.39
54453;BME280;40363;52.270;10.546;2024-02-15T00:53:40;100762.53;;;9.92;90.20
54453;BME280;40363;52.270;10.546;2024-02-15T00:56:06;100762.53;;;9.92;89.92
54453;BME280;40363;52.270;10.546;2024-02-15T00:58:33;100750.78;;;9.92;90.17
54453;BME280;40363;52.270;10.546;2024-02-15T01:01:01;100760.25;;;9.94;90.02
54453;BME280;40363;52.270;10.546;2024-02-15T01:03:28;100764.31;;;9.97;90.37
54453;BME280;40363;52.270;10.546;2024-02-15T01:05:56;100763.81;;;10.03;90.02
54453;BME280;40363;52.270;10.546;2024-02-15T01:08:22;100768.63;;;9.98;90.08
54453;BME280;40363;52.270;10.546;2024-02-15T01:10:49;100770.25;;;9.99;90.11
54453;BME280;40363;52.270;10.546;2024-02-15T01:13:15;100772.00;;;9.95;90.26
54453;BME280;40363;52.270;10.546;2024-02-15T01:15:42;100769.78;;;9.97;90.01
54453;BME280;40363;52.270;10.546;2024-02-15T01:18:11;100769.28;;;9.95;90.15
54453;BME280;40363;52.270;10.546;2024-02-15T01:20:37;100764.94;;;9.94;89.98
54453;BME280;40363;52.270;10.546;2024-02-15T01:23:04;100776.84;;;9.98;89.74
54453;BME280;40363;52.270;10.546;2024-02-15T01:25:33;100775.91;;;9.94;90.15
54453;BME280;40363;52.270;10.546;2024-02-15T01:27:59;100777.50;;;9.95;90.10
54453;BME280;40363;52.270;10.546;2024-02-15T01:30:27;100781.53;;;9.97;90.12
54453;BME280;40363;52.270;10.546;2024-02-15T01:32:53;100779.28;;;9.99;89.95
54453;BME280;40363;52.270;10.546;2024-02-15T01:35:22;100779.28;;;9.99;89.55
54453;BME280;40363;52.270;10.546;2024-02-15T01:37:48;100773.78;;;9.99;89.73
54453;BME280;40363;52.270;10.546;2024-02-15T01:40:15;100773.31;;;9.97;89.85
54453;BME280;40363;52.270;10.546;2024-02-15T01:42:44;100766.53;;;9.95;89.96
54453;BME280;40363;52.270;10.546;2024-02-15T01:45:11;100762.38;;;9.97;90.15
54453;BME280;40363;52.270;10.546;2024-02-15T01:47:38;100767.38;;;9.95;89.91
54453;BME280;40363;52.270;10.546;2024-02-15T01:50:06;100761.06;;;9.95;90.21
54453;BME280;40363;52.270;10.546;2024-02-15T01:52:35;100765.41;;;9.96;89.95
54453;BME280;40363;52.270;10.546;2024-02-15T01:55:03;100765.41;;;9.96;90.25
54453;BME280;40363;52.270;10.546;2024-02-15T01:57:34;100759.16;;;9.95;90.29
54453;BME280;40363;52.270;10.546;2024-02-15T02:00:00;100756.56;;;9.99;90.07
54453;BME280;40363;52.270;10.546;2024-02-15T02:02:31;100755.41;;;10.00;89.84
54453;BME280;40363;52.270;10.546;2024-02-15T02:05:00;100755.78;;;9.98;90.03
54453;BME280;40363;52.270;10.546;2024-02-15T02:07:26;100754.47;;;9.96;89.83
54453;BME280;40363;52.270;10.546;2024-02-15T02:09:54;100751.25;;;9.94;90.58
54453;BME280;40363;52.270;10.546;2024-02-15T02:12:21;100751.25;;;9.94;90.19
54453;BME280;40363;52.270;10.546;2024-02-15T02:14:50;100742.41;;;9.97;90.02
54453;BME280;40363;52.270;10.546;2024-02-15T02:17:16;100748.66;;;9.97;89.86
54453;BME280;40363;52.270;10.546;2024-02-15T02:19:45;100749.63;;;9.93;90.19
54453;BME280;40363;52.270;10.546;2024-02-15T02:22:14;100743.03;;;9.94;90.21
54453;BME280;40363;52.270;10.546;2024-02-15T02:25:02;100737.09;;;9.92;89.97
54453;BME280;40363;52.270;10.546;2024-02-15T02:27:29;100738.19;;;9.91;90.35
54453;BME280;40363;52.270;10.546;2024-02-15T02:29:58;100743.69;;;9.91;90.13
54453;BME280;40363;52.270;10.546;2024-02-15T02:32:25;100740.78;;;9.87;90.08
54453;BME280;40363;52.270;10.546;2024-02-15T02:34:52;100741.75;;;9.82;90.08
54453;BME280;40363;52.270;10.546;2024-02-15T02:37:22;100739.31;;;9.81;90.36
54453;BME280;40363;52.270;10.546;2024-02-15T02:39:49;100738.69;;;9.84;90.16
54453;BME280;40363;52.270;10.546;2024-02-15T02:42:17;100736.25;;;9.82;90.42
54453;BME280;40363;52.270;10.546;2024-02-15T02:44:44;100739.31;;;9.81;90.38
54453;BME280;40363;52.270;10.546;2024-02-15T02:47:11;100741.41;;;9.84;90.09
54453;BME280;40363;52.270;10.546;2024-02-15T02:49:37;100744.94;;;9.84;90.28
54453;BME280;40363;52.270;10.546;2024-02-15T02:52:04;100739.00;;;9.82;89.95
54453;BME280;40363;52.270;10.546;2024-02-15T02:54:31;100739.97;;;9.78;89.94
54453;BME280;40363;52.270;10.546;2024-02-15T02:56:58;100755.09;;;9.75;90.41
54453;BME280;40363;52.270;10.546;2024-02-15T02:59:26;100747.84;;;9.79;90.17
54453;BME280;40363;52.270;10.546;2024-02-15T03:01:53;100745.28;;;9.74;89.96
54453;BME280;40363;52.270;10.546;2024-02-15T03:04:21;100751.72;;;9.78;90.21
54453;BME280;40363;52.270;10.546;2024-02-15T03:06:48;100750.28;;;9.81;90.07
54453;BME280;40363;52.270;10.546;2024-02-15T03:09:15;100751.91;;;9.82;89.88
54453;BME280;40363;52.270;10.546;2024-02-15T03:11:41;100755.28;;;9.79;90.19
54453;BME280;40363;52.270;10.546;2024-02-15T03:14:08;100754.94;;;9.80;89.93
54453;BME280;40363;52.270;10.546;2024-02-15T03:16:37;100758.97;;;9.83;89.82
54453;BME280;40363;52.270;10.546;2024-02-15T03:19:04;100767.16;;;9.83;89.99
54453;BME280;40363;52.270;10.546;2024-02-15T03:21:31;100765.59;;;9.82;89.99
54453;BME280;40363;52.270;10.546;2024-02-15T03:23:57;100767.38;;;9.86;89.65
54453;BME280;40363;52.270;10.546;2024-02-15T03:26:30;100771.06;;;9.91;89.54
54453;BME280;40363;52.270;10.546;2024-02-15T03:29:03;100767.00;;;9.88;89.45
54453;BME280;40363;52.270;10.546;2024-02-15T03:31:30;100756.56;;;9.90;89.81
54453;BME280;40363;52.270;10.546;2024-02-15T03:33:58;100765.59;;;9.91;89.53
54453;BME280;40363;52.270;10.546;2024-02-15T03:36:25;100770.59;;;9.89;89.81
54453;BME280;40363;52.270;10.546;2024-02-15T03:38:54;100762.53;;;9.92;89.60
54453;BME280;40363;52.270;10.546;2024-02-15T03:41:21;100763.63;;;9.91;89.60
54453;BME280;40363;52.270;10.546;2024-02-15T03:43:48;100766.53;;;9.95;89.43
54453;BME280;40363;52.270;10.546;2024-02-15T03:46:14;100762.69;;;9.96;89.39
54453;BME280;40363;52.270;10.546;2024-02-15T03:48:42;100763.00;;;9.94;89.49
54453;BME280;40363;52.270;10.546;2024-02-15T03:51:15;100771.22;;;9.94;89.25
54453;BME280;40363;52.270;10.546;2024-02-15T03:53:42;100771.53;;;9.93;89.56
54453;BME280;40363;52.270;10.546;2024-02-15T03:56:09;100769.47;;;9.98;89.33
54453;BME280;40363;52.270;10.546;2024-02-15T03:58:36;100773.31;;;9.97;89.18
54453;BME280;40363;52.270;10.546;2024-02-15T04:01:04;100780.41;;;9.98;89.33
54453;BME280;40363;52.270;10.546;2024-02-15T04:03:32;100780.06;;;10.00;89.37
54453;BME280;40363;52.270;10.546;2024-02-15T04:05:59;100782.81;;;10.00;89.26
54453;BME280;40363;52.270;10.546;2024-02-15T04:08:28;100786.06;;;10.02;89.44
54453;BME280;40363;52.270;10.546;2024-02-15T04:10:54;100781.22;;;9.99;89.08
54453;BME280;40363;52.270;10.546;2024-02-15T04:13:23;100779.44;;;10.03;89.34
54453;BME280;40363;52.270;10.546;2024-02-15T04:15:49;100784.59;;;10.04;89.43
54453;BME280;40363;52.270;10.546;2024-02-15T04:18:18;100781.69;;;10.10;89.03
54453;BME280;40363;52.270;10.546;2024-02-15T04:20:45;100785.88;;;10.16;89.06
54453;BME280;40363;52.270;10.546;2024-02-15T04:23:12;100789.44;;;10.16;88.88
54453;BME280;40363;52.270;10.546;2024-02-15T04:25:39;100785.72;;;10.12;89.25
54453;BME280;40363;52.270;10.546;2024-02-15T04:28:09;100786.06;;;10.11;89.13
54453;BME280;40363;52.270;10.546;2024-02-15T04:30:36;100789.44;;;10.08;89.51
54453;BME280;40363;52.270;10.546;2024-02-15T04:33:04;100783.78;;;10.04;89.54
54453;BME280;40363;52.270;10.546;2024-02-15T04:35:31;100784.44;;;10.10;89.39
54453;BME280;40363;52.270;10.546;2024-02-15T04:37:58;100780.41;;;10.07;89.15
54453;BME280;40363;52.270;10.546;2024-02-15T04:40:24;100787.50;;;10.08;89.33
54453;BME280;40363;52.270;10.546;2024-02-15T04:42:52;100778.63;;;10.11;89.30
54453;BME280;40363;52.270;10.546;2024-02-15T04:45:19;100786.84;;;10.11;89.34
54453;BME280;40363;52.270;10.546;2024-02-15T04:47:48;100781.38;;;10.11;89.54
54453;BME280;40363;52.270;10.546;2024-02-15T04:50:17;100789.13;;;10.09;89.53
54453;BME280;40363;52.270;10.546;2024-02-15T04:52:46;100797.00;;;10.11;89.60
54453;BME280;40363;52.270;10.546;2024-02-15T04:55:13;100791.22;;;10.12;89.58
54453;BME280;40363;52.270;10.546;2024-02-15T04:57:41;100783.00;;;10.12;89.42
54453;BME280;40363;52.270;10.546;2024-02-15T05:00:10;100783.47;;;10.14;89.39
54453;BME280;40363;52.270;10.546;2024-02-15T05:02:38;100776.38;;;10.13;89.34
54453;BME280;40363;52.270;10.546;2024-02-15T05:05:06;100779.44;;;10.12;89.53
54453;BME280;40363;52.270;10.546;2024-02-15T05:07:33;100783.00;;;10.12;89.53
54453;BME280;40363;52.270;10.546;2024-02-15T05:10:00;100774.78;;;10.12;89.61
54453;BME280;40363;52.270;10.546;2024-02-15T05:12:32;100783.00;;;10.12;89.50
54453;BME280;40363;52.270;10.546;2024-02-15T05:14:59;100786.84;;;10.11;89.74
54453;BME280;40363;52.270;10.546;2024-02-15T05:17:28;100783.00;;;10.12;89.75
54453;BME280;40363;52.270;10.546;2024-02-15T05:19:58;100787.31;;;10.13;89.76
54453;BME280;40363;52.270;10.546;2024-02-15T05:22:25;100786.22;;;10.14;89.68
54453;BME280;40363;52.270;10.546;2024-02-15T05:24:54;100779.09;;;10.13;89.22
54453;BME280;40363;52.270;10.546;2024-02-15T05:27:21;100783.16;;;10.16;89.32
54453;BME280;40363;52.270;10.546;2024-02-15T05:29:48;100782.69;;;10.14;89.62
54453;BME280;40363;52.270;10.546;2024-02-15T05:32:18;100778.31;;;10.13;89.43
54453;BME280;40363;52.270;10.546;2024-02-15T05:34:47;100791.06;;;10.17;89.59
54453;BME280;40363;52.270;10.546;2024-02-15T05:37:14;100789.44;;;10.16;89.67
54453;BME280;40363;52.270;10.546;2024-02-15T05:39:41;100788.00;;;10.19;89.40
54453;BME280;40363;52.270;10.546;2024-02-15T05:42:07;100782.50;;;10.19;89.67
54453;BME280;40363;52.270;10.546;2024-02-15T05:44:35;100784.44;;;10.18;89.51
54453;BME280;40363;52.270;10.546;2024-02-15T05:47:02;100776.22;;;10.18;89.46
54453;BME280;40363;52.270;10.546;2024-02-15T05:49:29;100778.63;;;10.20;89.63
54453;BME280;40363;52.270;10.546;2024-02-15T05:51:57;100773.97;;;10.20;89.48
54453;BME280;40363;52.270;10.546;2024-02-15T05:54:24;100778.31;;;10.21;89.52
54453;BME280;40363;52.270;10.546;2024-02-15T05:56:51;100773.66;;;10.22;89.74
54453;BME280;40363;52.270;10.546;2024-02-15T05:59:20;100771.22;;;10.20;89.53
54453;BME280;40363;52.270;10.546;2024-02-15T06:01:46;100775.25;;;10.23;89.27
54453;BME280;40363;52.270;10.546;2024-02-15T06:04:14;100784.63;;;10.22;89.55
54453;BME280;40363;52.270;10.546;2024-02-15T06:06:42;100777.03;;;10.19;89.39
54453;BME280;40363;52.270;10.546;2024-02-15T06:09:10;100782.34;;;10.24;89.46
54453;BME280;40363;52.270;10.546;2024-02-15T06:11:37;100783.78;;;10.21;89.44
54453;BME280;40363;52.270;10.546;2024-02-15T06:14:03;100788.00;;;10.19;89.66
54453;BME280;40363;52.270;10.546;2024-02-15T06:16:31;100786.53;;;10.21;89.63
54453;BME280;40363;52.270;10.546;2024-02-15T06:18:58;100789.94;;;10.27;89.72
54453;BME280;40363;52.270;10.546;2024-02-15T06:21:25;100781.53;;;10.23;89.68
54453;BME280;40363;52.270;10.546;2024-02-15T06:23:53;100784.75;;;10.26;89.63
54453;BME280;40363;52.270;10.546;2024-02-15T06:26:22;100788.47;;;10.30;89.22
54453;BME280;40363;52.270;10.546;2024-02-15T06:28:48;100791.53;;;10.28;89.33
54453;BME280;40363;52.270;10.546;2024-02-15T06:31:32;100797.31;;;10.27;89.43
54453;BME280;40363;52.270;10.546;2024-02-15T06:34:17;100808.66;;;10.34;89.23
54453;BME280;40363;52.270;10.546;2024-02-15T06:37:01;100803.50;;;10.32;89.12
54453;BME280;40363;52.270;10.546;2024-02-15T06:39:45;100807.50;;;10.35;88.98
54453;BME280;40363;52.270;10.546;2024-02-15T06:42:14;100809.94;;;10.36;89.07
54453;BME280;40363;52.270;10.546;2024-02-15T06:44:42;100800.59;;;10.37;88.99
54453;BME280;40363;52.270;10.546;2024-02-15T06:47:08;100805.56;;;10.35;89.12
54453;BME280;40363;52.270;10.546;2024-02-15T06:49:37;100806.22;;;10.41;88.46
54453;BME280;40363;52.270;10.546;2024-02-15T06:52:06;100804.59;;;10.40;88.69
54453;BME280;40363;52.270;10.546;2024-02-15T06:54:33;100799.91;;;10.40;88.80
54453;BME280;40363;52.270;10.546;2024-02-15T06:57:01;100806.38;;;10.45;88.53
54453;BME280;40363;52.270;10.546;2024-02-15T06:59:29;100805.41;;;10.49;88.35
54453;BME280;40363;52.270;10.546;2024-02-15T07:01:57;100816.38;;;10.49;88.35
54453;BME280;40363;52.270;10.546;2024-02-15T07:04:23;100808.47;;;10.48;88.64
54453;BME280;40363;52.270;10.546;2024-02-15T07:06:51;100812.16;;;10.52;88.21
54453;BME280;40363;52.270;10.546;2024-02-15T07:09:19;100813.94;;;10.56;88.09
54453;BME280;40363;52.270;10.546;2024-02-15T07:11:48;100809.25;;;10.57;87.93
54453;BME280;40363;52.270;10.546;2024-02-15T07:14:15;100815.56;;;10.57;88.19
54453;BME280;40363;52.270;10.546;2024-02-15T07:16:45;100809.25;;;10.57;87.98
54453;BME280;40363;52.270;10.546;2024-02-15T07:19:12;100804.59;;;10.57;88.24
54453;BME280;40363;52.270;10.546;2024-02-15T07:21:39;100811.66;;;10.58;87.94
54453;BME280;40363;52.270;10.546;2024-02-15T07:24:06;100807.97;;;10.63;87.95
54453;BME280;40363;52.270;10.546;2024-02-15T07:26:33;100804.44;;;10.63;87.90
54453;BME280;40363;52.270;10.546;2024-02-15T07:29:01;100804.25;;;10.68;87.97
54453;BME280;40363;52.270;10.546;2024-02-15T07:31:31;100801.16;;;10.78;87.42
54453;BME280;40363;52.270;10.546;2024-02-15T07:33:59;100798.25;;;10.83;87.15
54453;BME280;40363;52.270;10.546;2024-02-15T07:36:26;100800.34;;;10.86;86.97
54453;BME280;40363;52.270;10.546;2024-02-15T07:38:53;100808.06;;;10.93;86.61
54453;BME280;40363;52.270;10.546;2024-02-15T07:41:26;100813.19;;;10.94;86.75
54453;BME280;40363;52.270;10.546;2024-02-15T07:43:54;100805.31;;;10.93;86.85
54453;BME280;40363;52.270;10.546;2024-02-15T07:46:21;100799.16;;;10.96;86.52
54453;BME280;40363;52.270;10.546;2024-02-15T07:48:49;100804.19;;;10.94;86.89
54453;BME280;40363;52.270;10.546;2024-02-15T07:51:18;100813.56;;;10.93;87.18
54453;BME280;40363;52.270;10.546;2024-02-15T07:53:45;100801.94;;;10.87;86.82
54453;BME280;40363;52.270;10.546;2024-02-15T07:56:13;100810.81;;;10.93;86.93
54453;BME280;40363;52.270;10.546;2024-02-15T07:58:40;100808.53;;;10.95;86.90
54453;BME280;40363;52.270;10.546;2024-02-15T08:01:08;100805.47;;;10.96;87.10
54453;BME280;40363;52.270;10.546;2024-02-15T08:03:34;100803.38;;;10.93;86.98
54453;BME280;40363;52.270;10.546;2024-02-15T08:06:01;100802.22;;;10.94;86.74
54453;BME280;40363;52.270;10.546;2024-02-15T08:08:33;100803.66;;;11.01;86.50
54453;BME280;40363;52.270;10.546;2024-02-15T08:11:01;100803.66;;;11.01;86.84
54453;BME280;40363;52.270;10.546;2024-02-15T08:13:28;100793.84;;;11.00;86.38
54453;BME280;40363;52.270;10.546;2024-02-15T08:15:55;100795.72;;;11.08;86.19
54453;BME280;40363;52.270;10.546;2024-02-15T08:18:22;100799.47;;;11.03;86.46
54453;BME280;40363;52.270;10.546;2024-02-15T08:20:50;100794.94;;;11.07;86.19
54453;BME280;40363;52.270;10.546;2024-02-15T08:23:16;100802.84;;;11.09;86.33
54453;BME280;40363;52.270;10.546;2024-02-15T08:25:44;100793.97;;;11.12;86.46
54453;BME280;40363;52.270;10.546;2024-02-15T08:28:11;100795.06;;;11.11;86.12
54453;BME280;40363;52.270;10.546;2024-02-15T08:30:38;100794.28;;;11.10;86.46
54453;BME280;40363;52.270;10.546;2024-02-15T08:33:05;100795.56;;;11.13;86.23
54453;BME280;40363;52.270;10.546;2024-02-15T08:35:31;100797.00;;;11.19;85.77
54453;BME280;40363;52.270;10.546;2024-02-15T08:37:58;100789.53;;;11.28;85.60
54453;BME280;40363;52.270;10.546;2024-02-15T08:40:25;100784.97;;;11.32;85.50
54453;BME280;40363;52.270;10.546;2024-02-15T08:42:53;100788.34;;;11.38;84.88
54453;BME280;40363;52.270;10.546;2024-02-15T08:45:20;100789.78;;;11.44;84.93
54453;BME280;40363;52.270;10.546;2024-02-15T08:47:48;100797.03;;;11.49;84.65
54453;BME280;40363;52.270;10.546;2024-02-15T08:50:18;100791.34;;;11.54;84.35
54453;BME280;40363;52.270;10.546;2024-02-15T08:52:47;100794.22;;;11.58;84.31
54453;BME280;40363;52.270;10.546;2024-02-15T08:55:14;100793.69;;;11.64;84.08
54453;BME280;40363;52.270;10.546;2024-02-15T08:57:41;100788.94;;;11.73;83.71
54453;BME280;40363;52.270;10.546;2024-02-15T09:00:11;100780.88;;;11.77;83.13
54453;BME280;40363;52.270;10.546;2024-02-15T09:02:42;100792.13;;;11.84;83.07
54453;BME280;40363;52.270;10.546;2024-02-15T09:05:08;100793.03;;;11.88;82.88
54453;BME280;40363;52.270;10.546;2024-02-15T09:07:35;100787.06;;;11.95;82.66
54453;BME280;40363;52.270;10.546;2024-02-15T09:10:03;100785.25;;;11.99;82.53
54453;BME280;40363;52.270;10.546;2024-02-15T09:12:29;100782.97;;;12.01;82.30
54453;BME280;40363;52.270;10.546;2024-02-15T09:14:57;100785.38;;;12.03;81.53
54453;BME280;40363;52.270;10.546;2024-02-15T09:17:25;100773.53;;;12.11;81.63
54453;BME280;40363;52.270;10.546;2024-02-15T09:19:51;100783.97;;;12.18;81.59
54453;BME280;40363;52.270;10.546;2024-02-15T09:22:19;100781.94;;;12.27;81.34
54453;BME280;40363;52.270;10.546;2024-02-15T09:24:46;100782.53;;;12.33;80.82
54453;BME280;40363;52.270;10.546;2024-02-15T09:27:13;100787.63;;;12.43;80.63
54453;BME280;40363;52.270;10.546;2024-02-15T09:29:39;100779.44;;;12.55;79.83
54453;BME280;40363;52.270;10.546;2024-02-15T09:32:07;100776.91;;;12.62;79.58
54453;BME280;40363;52.270;10.546;2024-02-15T09:34:35;100786.91;;;12.67;79.55
54453;BME280;40363;52.270;10.546;2024-02-15T09:37:02;100790.78;;;12.66;79.34
54453;BME280;40363;52.270;10.546;2024-02-15T09:39:30;100794.22;;;12.63;79.47
54453;BME280;40363;52.270;10.546;2024-02-15T09:41:57;100797.13;;;12.67;79.26
54453;BME280;40363;52.270;10.546;2024-02-15T09:44:24;100786.13;;;12.67;79.08
54453;BME280;40363;52.270;10.546;2024-02-15T09:47:02;100787.38;;;12.69;78.95
54453;BME280;40363;52.270;10.546;2024-02-15T09:49:33;100788.31;;;12.73;79.19
54453;BME280;40363;52.270;10.546;2024-02-15T09:52:03;100787.88;;;12.83;78.38
54453;BME280;40363;52.270;10.546;2024-02-15T09:54:31;100781.09;;;12.81;78.52
54453;BME280;40363;52.270;10.546;2024-02-15T09:57:01;100780.06;;;12.86;78.08
54453;BME280;40363;52.270;10.546;2024-02-15T09:59:28;100787.31;;;12.90;78.09
54453;BME280;40363;52.270;10.546;2024-02-15T10:01:58;100782.59;;;12.91;78.17
54453;BME280;40363;52.270;10.546;2024-02-15T10:04:25;100785.47;;;12.94;77.88
54453;BME280;40363;52.270;10.546;2024-02-15T10:06:51;100791.78;;;12.95;77.19
54453;BME280;40363;52.270;10.546;2024-02-15T10:09:26;100778.50;;;12.97;77.22
54453;BME280;40363;52.270;10.546;2024-02-15T10:11:54;100779.28;;;12.97;77.31
54453;BME280;40363;52.270;10.546;2024-02-15T10:14:23;100780.78;;;12.95;77.43
54453;BME280;40363;52.270;10.546;2024-02-15T10:16:49;100782.50;;;12.99;77.48
54453;BME280;40363;52.270;10.546;2024-02-15T10:19:18;100783.28;;;13.00;77.48
54453;BME280;40363;52.270;10.546;2024-02-15T10:21:46;100781.94;;;13.06;77.17
54453;BME280;40363;52.270;10.546;2024-02-15T10:24:12;100784.56;;;13.15;76.97
54453;BME280;40363;52.270;10.546;2024-02-15T10:26:40;100781.38;;;13.25;76.38
54453;BME280;40363;52.270;10.546;2024-02-15T10:29:08;100786.66;;;13.30;75.78
54453;BME280;40363;52.270;10.546;2024-02-15T10:31:36;100777.25;;;13.31;75.60
54453;BME280;40363;52.270;10.546;2024-02-15T10:34:04;100781.38;;;13.25;75.96
54453;BME280;40363;52.270;10.546;2024-02-15T10:36:32;100780.00;;;13.31;75.73
54453;BME280;40363;52.270;10.546;2024-02-15T10:39:12;100786.34;;;13.32;75.84
54453;BME280;40363;52.270;10.546;2024-02-15T10:41:44;100784.84;;;13.34;75.83
54453;BME280;40363;52.270;10.546;2024-02-15T10:44:15;100773.03;;;13.34;76.15
54453;BME280;40363;52.270;10.546;2024-02-15T10:46:43;100779.81;;;13.36;75.72
54453;BME280;40363;52.270;10.546;2024-02-15T10:49:11;100773.28;;;13.41;74.97
54453;BME280;40363;52.270;10.546;2024-02-15T10:51:39;100772.81;;;13.39;75.05
54453;BME280;40363;52.270;10.546;2024-02-15T10:54:12;100776.03;;;13.41;75.14
54453;BME280;40363;52.270;10.546;2024-02-15T10:56:47;100789.91;;;13.32;75.16
54453;BME280;40363;52.270;10.546;2024-02-15T10:59:17;100790.72;;;13.33;75.23
54453;BME280;40363;52.270;10.546;2024-02-15T11:01:45;100787.69;;;13.26;75.07
54453;BME280;40363;52.270;10.546;2024-02-15T11:04:15;100787.78;;;13.17;75.62
54453;BME280;40363;52.270;10.546;2024-02-15T11:06:43;100783.34;;;13.12;76.01
54453;BME280;40363;52.270;10.546;2024-02-15T11:09:10;100776.44;;;13.06;76.42
54453;BME280;40363;52.270;10.546;2024-02-15T11:11:39;100783.56;;;13.07;75.89
54453;BME280;40363;52.270;10.546;2024-02-15T11:14:27;100779.88;;;13.03;75.88
54453;BME280;40363;52.270;10.546;2024-02-15T11:16:55;100774.97;;;13.09;75.91
54453;BME280;40363;52.270;10.546;2024-02-15T11:19:49;100775.41;;;13.11;75.55
54453;BME280;40363;52.270;10.546;2024-02-15T11:22:16;100770.81;;;13.02;75.72
54453;BME280;40363;52.270;10.546;2024-02-15T11:24:47;100772.78;;;13.02;75.48
54453;BME280;40363;52.270;10.546;2024-02-15T11:27:24;100767.28;;;13.02;76.12
54453;BME280;40363;52.270;10.546;2024-02-15T11:29:55;100773.91;;;13.01;76.18
54453;BME280;40363;52.270;10.546;2024-02-15T11:32:40;100765.19;;;12.99;76.38
54453;BME280;40363;52.270;10.546;2024-02-15T11:35:10;100767.13;;;12.98;76.88
54453;BME280;40363;52.270;10.546;2024-02-15T11:37:50;100760.38;;;12.96;77.16
54453;BME280;40363;52.270;10.546;2024-02-15T11:40:19;100766.91;;;12.91;77.48
54453;BME280;40363;52.270;10.546;2024-02-15T11:42:48;100765.66;;;12.89;77.59
54453;BME280;40363;52.270;10.546;2024-02-15T11:45:17;100762.41;;;12.87;77.86
54453;BME280;40363;52.270;10.546;2024-02-15T11:47:51;100757.72;;;12.87;77.98
54453;BME280;40363;52.270;10.546;2024-02-15T11:50:18;100759.53;;;12.83;78.17
54453;BME280;40363;52.270;10.546;2024-02-15T11:52:46;100760.38;;;12.83;78.90
54453;BME280;40363;52.270;10.546;2024-02-15T11:55:17;100747.28;;;12.80;79.18
54453;BME280;40363;52.270;10.546;2024-02-15T11:57:53;100748.41;;;12.79;79.52
54453;BME280;40363;52.270;10.546;2024-02-15T12:00:27;100748.53;;;12.83;79.45
54453;BME280;40363;52.270;10.546;2024-02-15T12:03:13;100744.75;;;12.88;79.25
54453;BME280;40363;52.270;10.546;2024-02-15T12:05:58;100737.69;;;12.99;79.32
54453;BME280;40363;52.270;10.546;2024-02-15T12:08:44;100733.09;;;13.03;79.21
54453;BME280;40363;52.270;10.546;2024-02-15T12:11:28;100729.88;;;13.01;78.68
54453;BME280;40363;52.270;10.546;2024-02-15T12:14:12;100734.66;;;12.92;79.17
54453;BME280;40363;52.270;10.546;2024-02-15T12:17:03;100728.38;;;12.91;79.23
54453;BME280;40363;52.270;10.546;2024-02-15T12:19:49;100721.13;;;12.87;79.58
54453;BME280;40363;52.270;10.546;2024-02-15T12:22:19;100717.94;;;12.84;80.32
54453;BME280;40363;52.270;10.546;2024-02-15T12:24:53;100714.16;;;12.77;81.17
54453;BME280;40363;52.270;10.546;2024-02-15T12:27:20;100703.25;;;12.68;81.52
54453;BME280;40363;52.270;10.546;2024-02-15T12:29:55;100700.03;;;12.66;82.08
54453;BME280;40363;52.270;10.546;2024-02-15T12:32:23;100697.38;;;12.57;82.28
54453;BME280;40363;52.270;10.546;2024-02-15T12:34:51;100694.63;;;12.45;82.64
54453;BME280;40363;52.270;10.546;2024-02-15T12:37:18;100685.31;;;12.37;83.38
54453;BME280;40363;52.270;10.546;2024-02-15T12:39:46;100680.06;;;12.44;83.48
54453;BME280;40363;52.270;10.546;2024-02-15T12:42:13;100673.41;;;12.45;83.49
54453;BME280;40363;52.270;10.546;2024-02-15T12:44:43;100682.03;;;12.56;83.39
54453;BME280;40363;52.270;10.546;2024-02-15T12:47:18;100682.63;;;12.62;83.10
54453;BME280;40363;52.270;10.546;2024-02-15T12:49:45;100685.81;;;12.64;82.28
54453;BME280;40363;52.270;10.546;2024-02-15T12:52:33;100680.09;;;12.69;82.03